Main page
METAR-TAF:

METAR-TAF

Airports :

Abu Musa, Iran

latitude: 25-52-33N, longitude: 055-02-01E, elevation: 7 m

Current weather observation

The report was made 5 hours and 33 minutes ago, at 15:00 UTC
Wind 6 kt from the West
Temperature 29°C
Humidity 100%
Pressure 1007 hPa
Visibility: 5000 m
mist

METAR: OIBA 301500Z 26006KT 5000 BR NSC 29/29 Q1007

Time: 01:03 (20:33 UTC)


TAF: missing

Weather observations and forecasts of more than 4000 airports (METAR and TAF reports).

The available stations are represented by yellow and red dots on the map.

Hover mouse over dot to see the name of the station.

Then click to see weather observations and forecasts.

To change the map : click on the green buttons with a black cross to zoom in, on the green button with a dash to zoom out, or on the green arrows for adjacent maps.


METAR-TAF: